Terminal Aerodrome Forecast
Issued by NWS

Home | Current Version | Previous Version | Text Only | Print | Product List | Glossary On
Versions: 1 2 3 4 5 6 7 8 9 10 11 12
000
FTUS45 KRIW 242300
TAFJAC
TAF
KJAC 242339Z 2500/2524 21015G23KT P6SM FEW120
     FM250130 20008KT P6SM SKC
     FM250500 35006KT P6SM SKC
     FM251700 18010KT P6SM SKC
     FM251930 18016G24KT P6SM SKC
      AMD LTD TO CLD VIS AND WIND=

USA.gov is the U.S. government's official web portal to all federal, state and local government web resources and services.